createdAt,value
2023-06-07T00:02:44.126Z,11.27
2023-06-07T00:05:49.138Z,10.43
2023-06-07T00:08:53.865Z,11.05
2023-06-07T00:11:58.551Z,11.73
2023-06-07T00:15:02.238Z,11.10
2023-06-07T00:18:06.208Z,11.35
2023-06-07T00:21:10.256Z,10.70
2023-06-07T00:24:14.555Z,10.63
2023-06-07T00:27:19.477Z,10.82
2023-06-07T00:30:23.449Z,10.68
2023-06-07T00:33:28.799Z,10.48
2023-06-07T00:36:35.011Z,11.35
2023-06-07T00:39:38.988Z,10.60
2023-06-07T00:42:43.742Z,10.30
2023-06-07T00:45:48.126Z,10.68
2023-06-07T00:48:52.999Z,10.07
2023-06-07T00:51:57.573Z,11.43
2023-06-07T00:55:03.413Z,11.52
2023-06-07T00:58:07.547Z,11.45
2023-06-07T01:01:11.986Z,9.82
2023-06-07T01:04:19.262Z,10.30
2023-06-07T01:07:25.831Z,11.00
2023-06-07T01:10:30.886Z,10.63
2023-06-07T01:13:35.614Z,10.75
2023-06-07T01:16:49.708Z,10.77
2023-06-07T01:19:54.702Z,10.48
2023-06-07T01:23:00.865Z,10.40
2023-06-07T01:26:06.011Z,10.55
2023-06-07T01:29:10.188Z,10.30
2023-06-07T01:32:14.658Z,11.18
2023-06-07T01:35:20.651Z,11.30
2023-06-07T01:38:27.737Z,11.55
2023-06-07T01:41:33.300Z,12.20
2023-06-07T01:44:39.777Z,12.35
2023-06-07T01:47:44.423Z,12.80
2023-06-07T01:50:48.315Z,12.45
2023-06-07T01:53:52.621Z,11.38
2023-06-07T01:57:22.016Z,12.30
2023-06-07T02:00:32.001Z,12.10
2023-06-07T02:03:42.886Z,12.38
2023-06-07T02:06:50.166Z,11.95
2023-06-07T02:09:54.934Z,12.20
2023-06-07T02:13:00.565Z,12.45
2023-06-07T02:16:07.601Z,11.10
2023-06-07T02:19:12.410Z,11.60
2023-06-07T02:22:16.601Z,11.77
2023-06-07T02:25:21.343Z,12.13
2023-06-07T02:28:25.355Z,12.82
2023-06-07T02:31:29.353Z,12.23
2023-06-07T02:34:37.224Z,12.63
2023-06-07T02:37:41.401Z,12.65
2023-06-07T02:40:45.374Z,11.93
2023-06-07T02:43:49.568Z,12.30
2023-06-07T02:46:53.635Z,12.10
2023-06-07T02:49:58.744Z,12.18
2023-06-07T02:53:03.522Z,12.00
2023-06-07T02:56:07.546Z,13.00
2023-06-07T02:59:11.309Z,13.30
2023-06-07T03:02:16.025Z,13.63
2023-06-07T03:05:20.298Z,12.90
2023-06-07T03:08:24.386Z,12.77
2023-06-07T03:11:28.442Z,12.18
2023-06-07T03:14:32.303Z,12.50
2023-06-07T03:17:37.108Z,12.30
2023-06-07T03:20:41.012Z,12.65
2023-06-07T03:23:45.181Z,12.38
2023-06-07T03:26:49.716Z,12.65
2023-06-07T03:29:53.796Z,11.90
2023-06-07T03:32:58.112Z,13.68
2023-06-07T03:36:02.841Z,11.98
2023-06-07T03:39:06.955Z,13.00
2023-06-07T03:42:11.276Z,13.23
2023-06-07T03:45:15.544Z,12.63
2023-06-07T03:48:19.750Z,12.80
2023-06-07T03:51:24.245Z,13.02
2023-06-07T03:54:28.468Z,12.57
2023-06-07T03:57:32.671Z,13.32
2023-06-07T04:00:36.470Z,12.98
2023-06-07T04:03:40.747Z,13.00
2023-06-07T04:06:45.493Z,12.80
2023-06-07T04:09:49.669Z,12.35
2023-06-07T04:12:53.722Z,12.45
2023-06-07T04:15:57.683Z,12.30
2023-06-07T04:19:02.543Z,12.23
2023-06-07T04:22:07.032Z,11.88
2023-06-07T04:25:11.329Z,11.45
2023-06-07T04:28:15.427Z,12.45
2023-06-07T04:31:19.231Z,12.93
2023-06-07T04:34:27.017Z,11.38
2023-06-07T04:37:32.337Z,11.75
2023-06-07T04:40:42.266Z,11.68
2023-06-07T04:43:49.931Z,11.77
2023-06-07T04:47:02.047Z,11.07
2023-06-07T04:50:10.080Z,10.45
2023-06-07T04:53:20.815Z,9.57
2023-06-07T04:56:27.153Z,9.35
2023-06-07T04:59:36.043Z,9.77
2023-06-07T05:02:44.671Z,9.40
2023-06-07T05:05:49.511Z,8.05
2023-06-07T05:08:53.661Z,8.40
2023-06-07T05:11:57.784Z,8.10
2023-06-07T05:15:02.117Z,8.75
2023-06-07T05:18:08.367Z,7.72
2023-06-07T05:21:13.211Z,8.02
2023-06-07T05:24:17.748Z,8.48
2023-06-07T05:27:22.230Z,8.55
2023-06-07T05:30:26.805Z,9.20
2023-06-07T05:33:32.036Z,8.85
2023-06-07T05:36:36.820Z,9.23
2023-06-07T05:39:42.921Z,9.18
2023-06-07T05:42:47.249Z,9.77
2023-06-07T05:45:51.409Z,9.10
2023-06-07T05:48:55.331Z,9.00
2023-06-07T05:51:59.370Z,8.95
2023-06-07T05:55:03.331Z,9.52
2023-06-07T05:58:07.628Z,8.82
2023-06-07T06:01:12.304Z,9.43
2023-06-07T06:04:19.478Z,9.52
2023-06-07T06:07:23.396Z,9.43
2023-06-07T06:10:27.428Z,8.85
2023-06-07T06:13:33.795Z,9.43
2023-06-07T06:16:37.974Z,8.65
2023-06-07T06:19:42.829Z,7.93
2023-06-07T06:22:47.036Z,8.60
2023-06-07T06:25:51.886Z,8.70
2023-06-07T06:28:56.009Z,9.02
2023-06-07T06:32:03.591Z,8.50
2023-06-07T06:35:08.468Z,8.23
2023-06-07T06:38:12.829Z,8.68
2023-06-07T06:41:16.901Z,8.50
2023-06-07T06:44:20.536Z,9.05
2023-06-07T06:47:26.330Z,8.77
2023-06-07T06:50:33.564Z,8.93
2023-06-07T06:53:38.263Z,8.98
2023-06-07T06:56:42.596Z,9.52
2023-06-07T06:59:49.387Z,9.40
2023-06-07T07:02:54.745Z,9.07
2023-06-07T07:05:58.825Z,9.23
2023-06-07T07:09:02.979Z,8.45
2023-06-07T07:12:07.933Z,9.40
2023-06-07T07:15:12.451Z,9.35
2023-06-07T07:18:16.495Z,9.05
2023-06-07T07:21:20.486Z,9.02
2023-06-07T07:24:24.282Z,8.90
2023-06-07T07:27:28.314Z,9.27
2023-06-07T07:30:32.845Z,8.98
2023-06-07T07:33:37.117Z,8.75
2023-06-07T07:36:41.244Z,8.90
2023-06-07T07:39:45.470Z,8.90
2023-06-07T07:42:50.054Z,8.45
2023-06-07T07:45:54.373Z,8.45
2023-06-07T07:48:58.356Z,8.65
2023-06-07T07:52:02.446Z,8.02
2023-06-07T07:55:08.675Z,8.80
2023-06-07T07:58:13.357Z,9.60
2023-06-07T08:01:19.379Z,8.68
2023-06-07T08:04:23.453Z,8.75
2023-06-07T08:07:27.805Z,8.90
2023-06-07T08:10:32.171Z,8.68
2023-06-07T08:13:36.533Z,8.57
2023-06-07T08:16:40.868Z,8.55
2023-06-07T08:19:45.179Z,10.05
2023-06-07T08:22:51.675Z,11.25
2023-06-07T08:25:58.953Z,8.73
2023-06-07T08:29:02.666Z,9.48
2023-06-07T08:32:07.074Z,9.23
2023-06-07T08:35:12.216Z,9.32
2023-06-07T08:38:16.344Z,9.02
2023-06-07T08:41:20.553Z,8.55
2023-06-07T08:44:24.653Z,8.40
2023-06-07T08:47:29.480Z,8.02
2023-06-07T08:50:35.222Z,8.43
2023-06-07T08:53:49.737Z,7.57
2023-06-07T08:56:56.297Z,7.90
2023-06-07T09:00:01.559Z,8.23
2023-06-07T09:03:07.466Z,8.25
2023-06-07T09:06:12.361Z,8.40
2023-06-07T09:09:16.488Z,7.90
2023-06-07T09:12:20.987Z,7.40
2023-06-07T09:15:25.008Z,7.40
2023-06-07T09:18:54.706Z,7.03
2023-06-07T09:21:59.265Z,6.35
2023-06-07T09:25:10.281Z,7.18
2023-06-07T09:28:15.363Z,5.63
2023-06-07T09:31:30.430Z,6.10
2023-06-07T09:34:34.918Z,6.05
2023-06-07T09:37:47.217Z,5.75
2023-06-07T09:40:52.384Z,5.90
2023-06-07T09:43:56.710Z,5.40
2023-06-07T09:47:04.545Z,4.72
2023-06-07T09:50:11.118Z,5.20
2023-06-07T09:53:16.186Z,5.38
2023-06-07T09:56:22.738Z,4.82
2023-06-07T09:59:27.006Z,5.50
2023-06-07T10:02:31.328Z,4.53
2023-06-07T10:05:36.040Z,5.20
2023-06-07T10:08:40.297Z,4.65
2023-06-07T10:11:47.353Z,4.82
2023-06-07T10:14:53.401Z,4.53
2023-06-07T10:18:12.396Z,5.15
2023-06-07T10:21:20.294Z,5.38
2023-06-07T10:24:36.656Z,4.97
2023-06-07T10:28:26.151Z,5.15
2023-06-07T10:31:35.816Z,5.15
2023-06-07T10:34:40.665Z,5.03
2023-06-07T10:37:45.411Z,4.63
2023-06-07T10:40:49.853Z,4.70
2023-06-07T10:43:53.651Z,4.82
2023-06-07T10:47:23.315Z,5.32
2023-06-07T10:50:27.300Z,4.70
2023-06-07T10:53:51.442Z,5.00
2023-06-07T10:56:55.349Z,4.95
2023-06-07T11:00:31.208Z,4.63
2023-06-07T11:03:38.995Z,5.00
2023-06-07T11:07:15.866Z,4.78
2023-06-07T11:10:32.368Z,4.45
2023-06-07T11:13:48.435Z,5.13
2023-06-07T11:16:52.530Z,4.88
2023-06-07T11:19:58.901Z,4.55
2023-06-07T11:23:26.751Z,4.78
2023-06-07T11:26:35.615Z,5.25
2023-06-07T11:29:40.580Z,5.10
2023-06-07T11:32:46.142Z,4.50
2023-06-07T11:35:50.920Z,4.72
2023-06-07T11:38:56.942Z,4.93
2023-06-07T11:42:01.127Z,4.85
2023-06-07T11:45:05.666Z,3.97
2023-06-07T11:48:10.860Z,4.10
2023-06-07T11:51:15.453Z,4.65
2023-06-07T11:54:24.264Z,4.35
2023-06-07T11:57:33.269Z,4.60
2023-06-07T12:00:38.666Z,4.40
2023-06-07T12:03:45.268Z,4.75
2023-06-07T12:06:52.538Z,4.53
2023-06-07T12:09:56.890Z,4.10
2023-06-07T12:13:11.144Z,4.10
2023-06-07T12:16:15.574Z,4.05
2023-06-07T12:19:20.146Z,4.28
2023-06-07T12:22:26.670Z,4.30
2023-06-07T12:25:30.837Z,4.10
2023-06-07T12:28:35.097Z,4.70
2023-06-07T12:31:42.335Z,4.00
2023-06-07T12:34:46.833Z,4.22
2023-06-07T12:37:51.104Z,3.60
2023-06-07T12:40:55.355Z,3.75
2023-06-07T12:44:00.833Z,3.83
2023-06-07T12:47:04.929Z,4.28
2023-06-07T12:50:10.100Z,4.53
2023-06-07T12:53:14.334Z,4.30
2023-06-07T12:56:18.552Z,3.90
2023-06-07T12:59:22.701Z,3.83
2023-06-07T13:02:27.849Z,3.63
2023-06-07T13:05:32.407Z,3.92
2023-06-07T13:08:36.820Z,4.07
2023-06-07T13:11:42.882Z,3.90
2023-06-07T13:14:47.585Z,4.10
2023-06-07T13:17:51.755Z,4.03
2023-06-07T13:20:56.437Z,4.00
2023-06-07T13:24:00.587Z,3.95
2023-06-07T13:27:05.063Z,4.05
2023-06-07T13:30:09.839Z,3.72
2023-06-07T13:33:18.216Z,4.30
2023-06-07T13:36:23.409Z,4.28
2023-06-07T13:39:27.648Z,4.10
2023-06-07T13:42:32.418Z,3.95
2023-06-07T13:45:37.200Z,4.20
2023-06-07T13:48:42.408Z,4.00
2023-06-07T13:51:47.425Z,4.13
2023-06-07T13:54:51.660Z,4.18
2023-06-07T13:57:56.075Z,3.90
2023-06-07T14:01:03.853Z,4.20
2023-06-07T14:04:08.659Z,3.78
2023-06-07T14:07:12.904Z,4.18
2023-06-07T14:10:17.452Z,4.28
2023-06-07T14:13:22.260Z,4.57
2023-06-07T14:16:28.390Z,4.30
2023-06-07T14:19:32.971Z,4.32
2023-06-07T14:22:36.995Z,5.40
2023-06-07T14:25:40.996Z,4.40
2023-06-07T14:28:45.523Z,4.28
2023-06-07T14:31:49.666Z,4.30
2023-06-07T14:34:53.880Z,3.95
2023-06-07T14:37:58.061Z,4.32
2023-06-07T14:41:01.955Z,4.57
2023-06-07T14:44:06.660Z,4.05
2023-06-07T14:47:10.846Z,4.50
2023-06-07T14:50:15.111Z,4.60
2023-06-07T14:53:19.225Z,5.20
2023-06-07T14:56:23.493Z,4.82
2023-06-07T14:59:27.726Z,4.93
2023-06-07T15:02:32.103Z,5.47
2023-06-07T15:05:36.338Z,5.40
2023-06-07T15:08:41.032Z,5.13
2023-06-07T15:11:45.178Z,5.63
2023-06-07T15:14:49.139Z,4.95
2023-06-07T15:17:54.076Z,5.05
2023-06-07T15:20:59.973Z,5.72
2023-06-07T15:24:04.222Z,5.53
2023-06-07T15:27:08.683Z,5.05
2023-06-07T15:30:13.503Z,5.90
2023-06-07T15:33:17.801Z,6.50
2023-06-07T15:36:21.735Z,6.78
2023-06-07T15:39:25.833Z,7.80
2023-06-07T15:42:30.392Z,7.25
2023-06-07T15:45:34.454Z,8.38
2023-06-07T15:48:38.708Z,8.10
2023-06-07T15:51:42.724Z,7.82
2023-06-07T15:54:46.862Z,8.52
2023-06-07T15:57:51.644Z,8.27
2023-06-07T16:00:56.134Z,8.85
2023-06-07T16:04:00.610Z,9.23
2023-06-07T16:07:05.129Z,9.23
2023-06-07T16:10:09.543Z,9.40
2023-06-07T16:13:13.447Z,9.90
2023-06-07T16:16:17.846Z,10.35
2023-06-07T16:19:21.934Z,10.05
2023-06-07T16:22:26.186Z,10.10
2023-06-07T16:25:30.276Z,8.77
2023-06-07T16:28:34.506Z,8.98
2023-06-07T16:31:38.611Z,8.18
2023-06-07T16:34:42.727Z,8.65
2023-06-07T16:37:46.828Z,8.63
2023-06-07T16:40:50.955Z,8.32
2023-06-07T16:43:55.111Z,8.85
2023-06-07T16:46:59.902Z,8.65
2023-06-07T16:50:05.196Z,9.13
2023-06-07T16:53:09.506Z,9.02
2023-06-07T16:56:13.827Z,8.02
2023-06-07T16:59:17.812Z,8.57
2023-06-07T17:02:21.906Z,8.05
2023-06-07T17:05:26.049Z,8.38
2023-06-07T17:08:30.196Z,9.27
2023-06-07T17:11:34.454Z,9.10
2023-06-07T17:14:38.742Z,9.00
2023-06-07T17:17:42.712Z,9.10
2023-06-07T17:20:49.298Z,9.05
2023-06-07T17:23:53.737Z,9.75
2023-06-07T17:26:57.867Z,10.38
2023-06-07T17:30:02.069Z,11.43
2023-06-07T17:33:07.225Z,10.27
2023-06-07T17:36:11.557Z,9.40
2023-06-07T17:39:16.678Z,9.45
2023-06-07T17:42:22.208Z,10.48
2023-06-07T17:45:29.786Z,10.30
2023-06-07T17:48:33.682Z,10.65
2023-06-07T17:51:38.155Z,10.90
2023-06-07T17:54:42.362Z,10.32
2023-06-07T17:57:46.544Z,9.70
2023-06-07T18:00:50.667Z,9.05
2023-06-07T18:03:54.816Z,10.52
2023-06-07T18:07:01.299Z,10.75
2023-06-07T18:10:08.806Z,10.95
2023-06-07T18:13:13.216Z,10.40
2023-06-07T18:16:17.312Z,10.73
2023-06-07T18:19:21.348Z,10.07
2023-06-07T18:22:25.657Z,9.90
2023-06-07T18:25:30.610Z,9.38
2023-06-07T18:28:34.828Z,9.18
2023-06-07T18:31:40.685Z,9.40
2023-06-07T18:34:44.617Z,9.88
2023-06-07T18:37:49.063Z,11.95
2023-06-07T18:40:53.668Z,9.25
2023-06-07T18:44:01.329Z,10.35
2023-06-07T18:47:07.024Z,10.15
2023-06-07T18:50:11.923Z,10.30
2023-06-07T18:53:16.298Z,10.63
2023-06-07T18:56:21.268Z,10.88
2023-06-07T18:59:25.056Z,11.23
2023-06-07T19:02:29.610Z,10.77
2023-06-07T19:05:34.143Z,11.27
2023-06-07T19:08:39.972Z,12.02
2023-06-07T19:11:44.117Z,10.88
2023-06-07T19:14:48.287Z,11.32
2023-06-07T19:17:52.610Z,11.00
2023-06-07T19:20:57.160Z,10.88
2023-06-07T19:24:04.062Z,11.05
2023-06-07T19:27:11.858Z,10.75
2023-06-07T19:30:16.214Z,11.23
2023-06-07T19:33:20.123Z,11.88
2023-06-07T19:36:23.878Z,10.70
2023-06-07T19:39:27.832Z,11.07
2023-06-07T19:42:31.990Z,10.98
2023-06-07T19:45:36.135Z,10.23
2023-06-07T19:48:42.850Z,9.82
2023-06-07T19:51:46.737Z,9.07
2023-06-07T19:54:51.086Z,10.07
2023-06-07T19:57:55.564Z,9.23
2023-06-07T20:00:59.605Z,10.38
2023-06-07T20:04:03.347Z,10.00
2023-06-07T20:07:09.318Z,9.52
2023-06-07T20:10:14.762Z,9.57
2023-06-07T20:13:18.897Z,9.20
2023-06-07T20:16:23.304Z,9.68
2023-06-07T20:19:27.667Z,8.82
2023-06-07T20:22:34.304Z,9.10
2023-06-07T20:25:38.343Z,8.90
2023-06-07T20:28:42.400Z,9.50
2023-06-07T20:31:53.158Z,9.13
2023-06-07T20:34:58.668Z,8.30
2023-06-07T20:38:02.733Z,8.48
2023-06-07T20:41:06.786Z,8.20
2023-06-07T20:44:10.781Z,7.65
2023-06-07T20:47:14.914Z,7.25
2023-06-07T20:50:18.880Z,7.07
2023-06-07T20:53:23.141Z,7.05
2023-06-07T20:56:27.714Z,7.35
2023-06-07T20:59:32.096Z,7.10
2023-06-07T21:02:36.631Z,6.57
2023-06-07T21:05:41.347Z,6.68
2023-06-07T21:08:45.449Z,5.90
2023-06-07T21:11:50.098Z,5.78
2023-06-07T21:14:56.515Z,5.65
2023-06-07T21:18:00.664Z,6.00
2023-06-07T21:21:05.054Z,5.70
2023-06-07T21:24:09.055Z,5.78
2023-06-07T21:27:13.118Z,5.90
2023-06-07T21:30:17.571Z,6.45
2023-06-07T21:33:22.008Z,5.38
2023-06-07T21:36:26.613Z,6.30
2023-06-07T21:39:31.148Z,7.03
2023-06-07T21:42:35.076Z,6.38
2023-06-07T21:45:38.943Z,5.70
2023-06-07T21:48:43.019Z,6.70
2023-06-07T21:51:47.445Z,6.43
2023-06-07T21:54:51.589Z,7.88
2023-06-07T21:57:55.739Z,6.55
2023-06-07T22:01:00.017Z,6.85
2023-06-07T22:04:04.796Z,7.47
2023-06-07T22:07:09.008Z,6.53
2023-06-07T22:10:13.658Z,6.68
2023-06-07T22:13:21.496Z,6.88
2023-06-07T22:16:26.504Z,7.22
2023-06-07T22:19:31.298Z,7.03
2023-06-07T22:22:35.517Z,7.20
2023-06-07T22:25:41.986Z,6.60
2023-06-07T22:28:47.240Z,6.80
2023-06-07T22:31:51.348Z,6.93
2023-06-07T22:35:04.799Z,6.90
2023-06-07T22:38:13.326Z,7.10
2023-06-07T22:41:17.662Z,7.35
2023-06-07T22:44:21.780Z,7.40
2023-06-07T22:47:29.850Z,8.27
2023-06-07T22:50:38.075Z,6.90
2023-06-07T22:53:42.166Z,6.20
2023-06-07T22:56:46.190Z,6.80
2023-06-07T22:59:50.224Z,6.47
2023-06-07T23:02:54.834Z,6.28
2023-06-07T23:06:02.696Z,5.97
2023-06-07T23:09:06.758Z,6.50
2023-06-07T23:12:11.080Z,6.53
2023-06-07T23:15:16.581Z,7.00
2023-06-07T23:18:21.578Z,6.78
2023-06-07T23:21:30.146Z,7.03
2023-06-07T23:24:34.316Z,6.93
2023-06-07T23:27:44.771Z,6.85
2023-06-07T23:30:49.019Z,6.80
2023-06-07T23:33:53.408Z,7.25
2023-06-07T23:36:57.189Z,7.50
2023-06-07T23:40:03.361Z,6.60
2023-06-07T23:43:08.053Z,7.00
2023-06-07T23:46:13.003Z,6.80
2023-06-07T23:49:17.195Z,7.20
2023-06-07T23:52:21.438Z,7.18
2023-06-07T23:55:25.894Z,6.80
2023-06-07T23:58:30.083Z,7.15
